Time;durP1;ratioP1;P1;durP2;ratioP2;P2;SDS_P1;SDS_P2;PMS_P1;PMS_P2;Temp;Humidity;BMP_temperature;BMP_pressure;BME280_temperature;BME280_humidity;BME280_pressure;Samples;Min_cycle;Max_cycle;Signal;HPM_P1;HPM_P2
2023/12/24 00:00:54;;;;;;;7.60;5.30;;;;;;;4.33;100.00;99661.16;5025247;28;20029;-70
2023/12/24 00:03:20;;;;;;;7.30;5.68;;;;;;;4.34;100.00;99650.13;5028747;28;20036;-70
2023/12/24 00:05:45;;;;;;;10.40;7.45;;;;;;;4.19;100.00;99626.41;5024442;28;20030;-70
2023/12/24 00:08:11;;;;;;;8.93;6.60;;;;;;;4.23;100.00;99635.97;5027383;28;20041;-70
2023/12/24 00:10:36;;;;;;;14.32;9.60;;;;;;;4.31;100.00;99642.34;5027270;28;20038;-70
2023/12/24 00:13:02;;;;;;;15.43;6.72;;;;;;;3.87;100.00;99575.47;5030840;28;20025;-70
2023/12/24 00:15:27;;;;;;;11.05;7.55;;;;;;;4.30;100.00;99639.69;5031157;28;20622;-70
2023/12/24 00:17:53;;;;;;;9.88;5.57;;;;;;;4.13;100.00;99633.75;5030846;28;20545;-70
2023/12/24 00:20:18;;;;;;;10.95;6.60;;;;;;;4.19;100.00;99654.50;5027703;28;20028;-70
2023/12/24 00:23:04;;;;;;;9.45;6.72;;;;;;;4.22;100.00;99662.31;5030608;28;20101;-70
2023/12/24 00:25:29;;;;;;;9.93;6.63;;;;;;;4.23;100.00;99674.28;5011916;28;20518;-70
2023/12/24 00:27:55;;;;;;;10.60;7.25;;;;;;;4.26;100.00;99677.00;5030359;28;20057;-70
2023/12/24 00:30:20;;;;;;;9.82;6.53;;;;;;;4.18;100.00;99657.84;5030745;28;20049;-70
2023/12/24 00:32:46;;;;;;;7.85;6.03;;;;;;;4.14;100.00;99664.47;5029311;28;20139;-70
2023/12/24 00:35:11;;;;;;;9.15;6.82;;;;;;;3.92;100.00;99639.53;5030032;28;20029;-70
2023/12/24 00:37:37;;;;;;;7.75;5.43;;;;;;;4.21;100.00;99691.19;5021371;28;20117;-70
2023/12/24 00:40:02;;;;;;;8.48;5.30;;;;;;;4.11;100.00;99694.09;5023958;28;20060;-71
2023/12/24 00:42:28;;;;;;;7.70;5.55;;;;;;;3.62;100.00;99632.09;5025461;28;20477;-69
2023/12/24 00:44:53;;;;;;;8.60;5.70;;;;;;;4.00;100.00;99697.00;5030075;28;20104;-69
2023/12/24 00:47:19;;;;;;;7.53;5.10;;;;;;;3.96;100.00;99690.00;5029810;28;20018;-68
2023/12/24 00:49:44;;;;;;;7.13;4.90;;;;;;;3.99;100.00;99685.03;5029764;28;20466;-69
2023/12/24 00:52:10;;;;;;;6.95;4.97;;;;;;;3.64;100.00;99640.72;5030046;28;20057;-70
2023/12/24 00:54:36;;;;;;;8.07;4.70;;;;;;;3.69;100.00;99674.16;5029522;28;20033;-70
2023/12/24 00:57:02;;;;;;;9.02;5.05;;;;;;;3.48;100.00;99656.91;5029712;28;20486;-70
2023/12/24 00:59:27;;;;;;;7.30;4.93;;;;;;;3.61;100.00;99688.16;5029676;28;20112;-70
2023/12/24 01:01:53;;;;;;;8.63;5.75;;;;;;;3.80;100.00;99705.31;5029645;28;20039;-70
2023/12/24 01:04:18;;;;;;;7.13;4.57;;;;;;;3.64;100.00;99685.75;5028935;28;20403;-70
2023/12/24 01:06:44;;;;;;;7.60;4.78;;;;;;;3.58;100.00;99706.75;5028034;28;20040;-71
2023/12/24 01:09:09;;;;;;;8.77;5.70;;;;;;;3.62;100.00;99697.59;5029588;28;20029;-71
2023/12/24 01:11:35;;;;;;;7.93;4.55;;;;;;;3.79;100.00;99701.00;5027197;28;20041;-71
2023/12/24 01:14:00;;;;;;;9.77;5.15;;;;;;;3.90;100.00;99705.00;5029214;28;20071;-70
2023/12/24 01:16:26;;;;;;;6.85;4.90;;;;;;;3.84;100.00;99676.59;5029918;28;20516;-70
2023/12/24 01:18:51;;;;;;;8.25;6.00;;;;;;;3.96;100.00;99689.09;5029840;28;20037;-71
2023/12/24 01:21:17;;;;;;;9.05;5.32;;;;;;;4.02;100.00;99694.53;5029449;28;20281;-70
2023/12/24 01:23:42;;;;;;;9.98;5.78;;;;;;;3.87;100.00;99685.28;5029354;28;20034;-71
2023/12/24 01:26:08;;;;;;;10.18;5.07;;;;;;;3.84;100.00;99695.34;5029566;28;20029;-71
2023/12/24 01:28:33;;;;;;;10.57;5.47;;;;;;;3.85;100.00;99683.44;5029292;28;20466;-70
2023/12/24 01:30:59;;;;;;;7.75;5.13;;;;;;;3.84;100.00;99676.59;5029242;28;20442;-71
2023/12/24 01:33:24;;;;;;;8.85;5.15;;;;;;;3.81;100.00;99669.63;5028773;28;20017;-71
2023/12/24 01:35:50;;;;;;;8.68;5.00;;;;;;;3.58;100.00;99650.59;5029377;28;20041;-70
2023/12/24 01:38:15;;;;;;;7.72;5.18;;;;;;;3.66;100.00;99679.94;4987323;28;1200181;-70
2023/12/24 01:40:47;;;;;;;7.78;5.10;;;;;;;3.70;100.00;99683.53;5030044;28;20495;-70
2023/12/24 01:43:13;;;;;;;7.88;4.93;;;;;;;3.29;100.00;99621.00;5030065;28;20022;-70
2023/12/24 01:45:38;;;;;;;8.57;5.18;;;;;;;3.63;100.00;99695.09;5032308;28;20120;-70
2023/12/24 01:48:04;;;;;;;8.60;5.28;;;;;;;3.70;100.00;99686.97;5033571;28;20036;-70
2023/12/24 01:50:31;;;;;;;11.15;5.93;;;;;;;3.75;100.00;99696.53;5034081;28;20502;-74
2023/12/24 01:52:57;;;;;;;8.50;5.47;;;;;;;3.86;100.00;99685.19;5033764;28;20024;-79
2023/12/24 01:55:22;;;;;;;10.38;4.53;;;;;;;4.00;100.00;99668.91;5033665;28;20096;-79
2023/12/24 01:57:49;;;;;;;9.95;4.32;;;;;;;3.90;100.00;99590.09;5033380;28;20116;-78
2023/12/24 02:00:16;;;;;;;7.03;4.43;;;;;;;4.51;100.00;99630.50;5034171;28;20448;-74
2023/12/24 02:02:42;;;;;;;7.30;4.22;;;;;;;4.84;100.00;99657.59;5033196;28;20053;-79
2023/12/24 02:05:08;;;;;;;6.25;3.78;;;;;;;4.99;100.00;99688.97;5033579;28;20060;-80
2023/12/24 02:07:35;;;;;;;8.98;5.15;;;;;;;4.82;100.00;99628.50;5033761;28;20032;-79
2023/12/24 02:10:01;;;;;;;8.63;4.45;;;;;;;5.34;100.00;99707.63;5033736;28;20038;-79
2023/12/24 02:12:27;;;;;;;11.65;5.03;;;;;;;5.45;100.00;99681.66;5033428;28;20018;-82
2023/12/24 02:14:52;;;;;;;10.35;4.68;;;;;;;5.41;100.00;99684.88;5031890;28;20025;-80
2023/12/24 02:17:18;;;;;;;10.38;4.70;;;;;;;5.50;100.00;99693.84;5033319;28;20034;-79
2023/12/24 02:19:44;;;;;;;6.35;4.30;;;;;;;5.51;100.00;99710.97;5033653;28;20029;-79
2023/12/24 02:22:10;;;;;;;8.63;4.78;;;;;;;5.45;100.00;99689.34;5033694;28;20104;-78
2023/12/24 02:24:35;;;;;;;9.95;4.80;;;;;;;5.49;100.00;99711.72;5032405;28;20103;-80
2023/12/24 02:27:22;;;;;;;10.60;4.72;;;;;;;5.64;100.00;99716.63;5033520;28;20032;-80
2023/12/24 02:29:55;;;;;;;9.15;4.82;;;;;;;5.63;100.00;99713.22;5032863;28;20504;-80
2023/12/24 02:32:23;;;;;;;9.93;4.47;;;;;;;5.71;100.00;99725.47;5031973;28;20491;-82
2023/12/24 02:34:49;;;;;;;13.65;4.80;;;;;;;5.80;100.00;99733.56;5032854;28;20021;-82
2023/12/24 02:37:15;;;;;;;9.38;4.10;;;;;;;5.83;100.00;99728.56;5031919;28;20029;-79
2023/12/24 02:39:41;;;;;;;7.10;4.10;;;;;;;5.89;100.00;99730.53;5032763;28;20042;-80
2023/12/24 02:42:08;;;;;;;7.38;4.43;;;;;;;5.86;100.00;99722.69;5033213;28;20112;-81
2023/12/24 02:44:35;;;;;;;9.02;3.42;;;;;;;6.03;100.00;99743.97;5032773;28;20393;-80
2023/12/24 02:47:00;;;;;;;8.07;4.05;;;;;;;5.95;100.00;99723.13;5033268;28;20037;-80
2023/12/24 02:49:26;;;;;;;10.20;4.82;;;;;;;6.18;100.00;99751.44;5032666;28;20025;-82
2023/12/24 02:51:52;;;;;;;6.10;3.70;;;;;;;6.35;100.00;99749.63;5031771;28;20569;-83
2023/12/24 02:54:18;;;;;;;7.53;3.58;;;;;;;6.32;100.00;99729.84;5031167;28;20026;-79
2023/12/24 02:56:43;;;;;;;7.80;3.63;;;;;;;6.44;100.00;99732.94;5032254;28;20029;-80
2023/12/24 02:59:09;;;;;;;8.35;2.72;;;;;;;6.56;100.00;99747.06;5032518;28;20028;-79
2023/12/24 03:01:34;;;;;;;7.43;3.40;;;;;;;6.60;100.00;99731.88;5031444;28;20519;-78
2023/12/24 03:04:00;;;;;;;8.43;3.30;;;;;;;6.70;100.00;99750.19;5033014;28;20057;-79
2023/12/24 03:06:25;;;;;;;8.43;2.70;;;;;;;6.72;100.00;99725.50;5032536;28;20041;-79
2023/12/24 03:08:51;;;;;;;7.50;2.97;;;;;;;6.85;100.00;99755.06;5013664;28;20037;-78
2023/12/24 03:11:16;;;;;;;7.03;2.75;;;;;;;6.73;100.00;99719.53;5032151;28;20025;-78
2023/12/24 03:13:42;;;;;;;5.65;2.30;;;;;;;7.00;100.00;99754.81;5032617;28;20116;-78
2023/12/24 03:16:07;;;;;;;2.38;1.73;;;;;;;7.08;100.00;99759.44;5032569;28;20025;-77
2023/12/24 03:18:33;;;;;;;8.43;2.58;;;;;;;6.97;100.00;99758.13;5032296;28;20021;-78
2023/12/24 03:21:00;;;;;;;8.80;2.88;;;;;;;6.93;100.00;99775.09;5032414;28;20034;-77
2023/12/24 03:23:26;;;;;;;6.63;3.03;;;;;;;6.73;100.00;99764.03;5032151;28;20603;-80
2023/12/24 03:25:53;;;;;;;5.40;2.65;;;;;;;6.79;100.00;99771.97;5032455;28;20037;-79
2023/12/24 03:28:18;;;;;;;5.80;2.75;;;;;;;6.75;100.00;99784.59;5031873;28;20116;-80
2023/12/24 03:30:44;;;;;;;7.53;3.05;;;;;;;6.72;100.00;99784.50;5032792;28;20101;-79
2023/12/24 03:33:10;;;;;;;6.40;3.35;;;;;;;6.73;100.00;99781.09;5031983;28;20108;-78
2023/12/24 03:35:36;;;;;;;7.47;3.25;;;;;;;6.69;100.00;99781.78;5032063;28;20457;-81
2023/12/24 03:38:02;;;;;;;5.60;3.00;;;;;;;6.43;100.00;99728.59;5032211;28;20037;-80
2023/12/24 03:40:27;;;;;;;8.10;3.28;;;;;;;6.67;100.00;99799.69;5032130;28;20040;-82
2023/12/24 03:42:53;;;;;;;6.07;2.88;;;;;;;6.58;100.00;99787.34;5032212;28;20025;-80
2023/12/24 03:45:18;;;;;;;5.75;2.70;;;;;;;6.30;100.00;99747.72;5030771;28;20029;-81
2023/12/24 03:47:44;;;;;;;8.68;3.05;;;;;;;6.61;100.00;99802.84;5031849;28;20045;-81
2023/12/24 03:50:10;;;;;;;6.88;2.53;;;;;;;6.60;100.00;99802.78;5032130;28;20116;-82
2023/12/24 03:52:35;;;;;;;5.75;2.70;;;;;;;6.67;100.00;99798.78;5031507;28;20025;-83
2023/12/24 03:55:01;;;;;;;7.72;2.80;;;;;;;6.68;100.00;99813.38;5031525;28;20060;-81
2023/12/24 03:57:26;;;;;;;7.57;3.58;;;;;;;6.75;100.00;99820.53;5030965;28;20531;-81
2023/12/24 03:59:52;;;;;;;6.03;2.85;;;;;;;6.79;100.00;99823.28;5031823;28;20076;-81
2023/12/24 04:02:17;;;;;;;8.45;3.45;;;;;;;6.95;100.00;99817.09;5031594;28;20071;-81
2023/12/24 04:04:47;;;;;;;7.85;3.38;;;;;;;6.62;100.00;99747.31;5031553;28;20104;-81
2023/12/24 04:07:15;;;;;;;7.57;3.00;;;;;;;7.13;100.00;99816.94;5030985;28;20033;-81
2023/12/24 04:09:42;;;;;;;4.28;3.08;;;;;;;7.19;100.00;99824.03;5029133;28;20033;-82
2023/12/24 04:12:08;;;;;;;6.70;2.40;;;;;;;7.18;100.00;99818.81;5031513;28;20108;-81
2023/12/24 04:14:37;;;;;;;6.32;3.22;;;;;;;7.27;100.00;99827.75;5012882;28;20033;-81
2023/12/24 04:17:03;;;;;;;4.47;2.25;;;;;;;7.46;100.00;99843.91;5030782;28;20411;-78
2023/12/24 04:19:29;;;;;;;4.93;1.90;;;;;;;7.41;100.00;99817.16;5031540;28;20136;-80
2023/12/24 04:21:54;;;;;;;3.92;1.92;;;;;;;7.49;100.00;99844.03;5031145;28;20057;-79
2023/12/24 04:24:20;;;;;;;3.53;1.92;;;;;;;7.49;100.00;99846.59;5031279;28;20037;-78
2023/12/24 04:26:45;;;;;;;5.65;2.15;;;;;;;7.15;100.00;99803.31;5030841;28;20021;-78
2023/12/24 04:29:11;;;;;;;4.75;2.03;;;;;;;7.27;100.00;99845.75;5031013;28;20029;-79
2023/12/24 04:31:40;;;;;;;3.40;2.08;;;;;;;7.21;100.00;99858.34;5031165;28;20080;-79
2023/12/24 04:34:09;;;;;;;5.55;2.25;;;;;;;6.45;100.00;99750.03;5030941;28;20057;-81
2023/12/24 04:36:34;;;;;;;7.63;2.33;;;;;;;7.07;100.00;99865.47;5030813;28;20496;-81
2023/12/24 04:39:01;;;;;;;5.70;2.88;;;;;;;6.69;100.00;99815.13;5030691;28;20050;-80
2023/12/24 04:41:28;;;;;;;6.57;2.70;;;;;;;6.95;100.00;99858.16;5030519;28;20500;-80
2023/12/24 04:43:57;;;;;;;5.03;2.22;;;;;;;6.92;100.00;99865.72;5030854;28;20030;-80
2023/12/24 04:46:23;;;;;;;6.45;2.50;;;;;;;6.86;100.00;99869.72;5029320;28;20025;-80
2023/12/24 04:48:48;;;;;;;7.53;2.80;;;;;;;6.72;100.00;99881.97;5030695;28;20545;-80
2023/12/24 04:51:14;;;;;;;6.90;2.40;;;;;;;6.58;100.00;99859.16;5030132;28;20029;-80
2023/12/24 04:53:40;;;;;;;9.95;4.28;;;;;;;6.78;100.00;99903.63;5030475;28;20515;-80
2023/12/24 04:56:06;;;;;;;10.23;4.13;;;;;;;6.71;100.00;99905.88;5030749;28;20025;-80
2023/12/24 04:58:31;;;;;;;12.48;4.97;;;;;;;6.51;100.00;99876.78;5030607;28;20040;-80
2023/12/24 05:00:57;;;;;;;6.30;3.20;;;;;;;6.55;100.00;99909.44;5030332;28;20028;-80
2023/12/24 05:03:23;;;;;;;11.38;4.63;;;;;;;6.59;100.00;99921.56;5029050;28;20041;-80
2023/12/24 05:05:48;;;;;;;8.75;3.80;;;;;;;6.52;100.00;99912.75;5028070;28;20029;-80
2023/12/24 05:08:14;;;;;;;11.05;3.55;;;;;;;6.41;100.00;99903.72;5028984;28;20073;-81
2023/12/24 05:10:39;;;;;;;8.90;4.07;;;;;;;6.51;100.00;99928.06;5030071;28;20034;-80
2023/12/24 05:13:06;;;;;;;8.55;4.05;;;;;;;6.46;100.00;99925.28;5030334;28;20045;-80
2023/12/24 05:15:31;;;;;;;81.35;39.65;;;;;;;6.52;100.00;99940.06;5030272;28;20064;-80
2023/12/24 05:17:57;;;;;;;16.65;9.77;;;;;;;6.38;100.00;99927.53;5030464;28;20069;-80
2023/12/24 05:20:22;;;;;;;9.10;5.07;;;;;;;6.47;100.00;99938.19;5029557;28;20025;-80
2023/12/24 05:22:48;;;;;;;8.60;3.70;;;;;;;6.54;100.00;99956.41;5030182;28;20112;-80
2023/12/24 05:25:13;;;;;;;6.72;2.95;;;;;;;6.52;100.00;99956.34;5028896;28;20033;-80
2023/12/24 05:27:39;;;;;;;4.22;2.53;;;;;;;6.40;100.00;99933.56;5030262;28;20083;-80
2023/12/24 05:30:06;;;;;;;6.55;2.90;;;;;;;6.48;100.00;99950.19;5028846;28;20484;-81
2023/12/24 05:32:33;;;;;;;5.00;2.10;;;;;;;6.85;100.00;99973.16;5029089;28;20037;-80
2023/12/24 05:34:59;;;;;;;5.85;2.65;;;;;;;6.97;100.00;99961.72;5029879;28;20056;-81
2023/12/24 05:37:24;;;;;;;8.23;3.35;;;;;;;6.78;100.00;99962.63;5030580;28;20128;-81
2023/12/24 05:39:50;;;;;;;9.93;3.88;;;;;;;6.64;100.00;99979.09;5029835;28;20061;-81
2023/12/24 05:42:15;;;;;;;42.63;25.50;;;;;;;6.40;100.00;99968.59;5029003;28;20022;-81
2023/12/24 05:44:41;;;;;;;48.78;21.08;;;;;;;6.44;100.00;99985.88;5029855;28;20036;-82
2023/12/24 05:47:06;;;;;;;152.23;60.55;;;;;;;6.41;100.00;99976.38;5028673;28;20495;-81
2023/12/24 05:49:33;;;;;;;22.15;7.90;;;;;;;6.51;100.00;99995.63;5030095;28;20034;-81
2023/12/24 05:51:59;;;;;;;5.88;3.38;;;;;;;6.87;100.00;100004.91;5030140;28;20033;-81
2023/12/24 05:54:24;;;;;;;5.65;3.85;;;;;;;6.75;100.00;99944.56;5029850;28;20021;-81
2023/12/24 05:56:50;;;;;;;6.20;2.58;;;;;;;7.06;100.00;100019.41;5030170;28;20032;-81
2023/12/24 05:59:15;;;;;;;4.82;2.28;;;;;;;6.90;100.00;100017.84;5029578;28;20026;-80
2023/12/24 06:01:42;;;;;;;8.30;2.78;;;;;;;6.59;100.00;99970.31;5030035;28;20065;-81
2023/12/24 06:04:08;;;;;;;5.70;3.22;;;;;;;6.82;100.00;100029.47;5029648;28;20412;-81
2023/12/24 06:06:39;;;;;;;4.95;2.90;;;;;;;6.70;100.00;100022.97;5030146;28;20044;-81
2023/12/24 06:09:05;;;;;;;5.60;3.28;;;;;;;6.38;100.00;99952.28;5027030;28;20051;-81
2023/12/24 06:11:30;;;;;;;6.38;3.42;;;;;;;6.82;100.00;100024.31;5009135;28;20477;-81
2023/12/24 06:13:56;;;;;;;5.65;3.00;;;;;;;6.88;100.00;100040.00;5027826;28;20025;-82
2023/12/24 06:16:21;;;;;;;6.88;2.78;;;;;;;6.85;100.00;100033.03;5029751;28;20087;-82
2023/12/24 06:18:47;;;;;;;8.25;2.92;;;;;;;6.84;100.00;100033.88;5029278;28;20506;-81
2023/12/24 06:21:12;;;;;;;6.22;2.38;;;;;;;6.89;100.00;100034.97;5028430;28;20034;-83
2023/12/24 06:23:38;;;;;;;6.47;2.47;;;;;;;6.83;100.00;100031.22;5017904;28;20112;-82
2023/12/24 06:26:04;;;;;;;8.93;3.38;;;;;;;6.91;100.00;100055.56;5030148;28;20051;-82
2023/12/24 06:28:29;;;;;;;5.25;2.72;;;;;;;6.88;100.00;100050.25;5029232;28;20088;-82
2023/12/24 06:30:55;;;;;;;5.47;2.60;;;;;;;6.95;100.00;100045.50;5048132;28;20119;-82
2023/12/24 06:33:21;;;;;;;7.18;3.63;;;;;;;6.97;100.00;100043.84;5050365;28;20041;-82
2023/12/24 06:35:46;;;;;;;8.48;4.13;;;;;;;7.00;100.00;100055.09;5050562;28;20098;-80
2023/12/24 06:38:12;;;;;;;8.48;4.28;;;;;;;7.05;100.00;100041.66;5049176;28;20112;-81
2023/12/24 06:40:37;;;;;;;6.63;3.33;;;;;;;7.21;100.00;100055.16;5049342;28;20086;-84
2023/12/24 06:43:03;;;;;;;5.15;2.92;;;;;;;6.43;100.00;99941.44;5050454;28;20124;-82
2023/12/24 06:45:28;;;;;;;7.50;4.43;;;;;;;7.14;100.00;100059.16;5034112;28;20123;-83
2023/12/24 06:47:54;;;;;;;9.68;4.50;;;;;;;6.88;100.00;100014.34;5050242;28;20076;-81
2023/12/24 06:50:22;;;;;;;9.20;4.10;;;;;;;7.21;100.00;100060.28;5050353;28;20427;-81
2023/12/24 06:52:47;;;;;;;5.28;2.55;;;;;;;7.37;100.00;100056.69;5033380;28;20094;-81
2023/12/24 06:55:13;;;;;;;3.53;2.05;;;;;;;7.52;100.00;100059.91;5050442;28;20511;-82
2023/12/24 06:57:38;;;;;;;5.90;2.40;;;;;;;7.67;100.00;100072.53;5050297;28;20128;-80
2023/12/24 07:00:05;;;;;;;5.38;2.22;;;;;;;7.70;100.00;100057.25;5050291;28;20503;-83
2023/12/24 07:02:31;;;;;;;8.15;4.00;;;;;;;7.90;100.00;100076.06;5036767;28;20045;-81
2023/12/24 07:04:57;;;;;;;6.53;4.07;;;;;;;7.79;100.00;100043.91;5031688;28;20044;-83
2023/12/24 07:07:22;;;;;;;4.07;2.50;;;;;;;8.13;100.00;100080.41;5032862;28;20034;-82
2023/12/24 07:09:48;;;;;;;5.75;2.67;;;;;;;8.16;100.00;100067.66;5031179;28;20037;-82
2023/12/24 07:12:13;;;;;;;4.30;1.90;;;;;;;8.33;100.00;100088.91;5032494;28;20021;-79
2023/12/24 07:14:39;;;;;;;3.05;1.40;;;;;;;8.13;100.00;100044.41;5031438;28;20026;-83
2023/12/24 07:17:04;;;;;;;4.22;2.00;;;;;;;8.35;100.00;100092.41;5030758;28;20033;-80
2023/12/24 07:19:30;;;;;;;4.50;1.92;;;;;;;8.41;100.00;100103.84;5031209;28;20037;-82
2023/12/24 07:21:56;;;;;;;4.95;2.63;;;;;;;8.58;100.00;100119.97;5032105;28;20025;-82
2023/12/24 07:24:22;;;;;;;3.50;2.15;;;;;;;8.37;100.00;100065.06;5032812;28;20040;-82
2023/12/24 07:26:47;;;;;;;4.55;2.50;;;;;;;8.65;100.00;100089.31;5032387;28;20140;-82
2023/12/24 07:29:13;;;;;;;2.58;1.60;;;;;;;8.95;100.00;100117.03;5032799;28;20037;-83
2023/12/24 07:31:39;;;;;;;4.63;1.65;;;;;;;9.13;100.00;100122.88;5032772;28;20041;-84
2023/12/24 07:34:04;;;;;;;2.50;1.63;;;;;;;9.30;100.00;100114.91;5032504;28;20561;-83
2023/12/24 07:36:30;;;;;;;2.65;1.20;;;;;;;9.53;99.66;100124.34;5031382;28;20049;-83
2023/12/24 07:38:56;;;;;;;3.10;1.48;;;;;;;9.52;99.70;100107.13;5032496;28;20474;-83
2023/12/24 07:41:25;;;;;;;4.18;2.00;;;;;;;9.25;99.18;100052.06;5032098;28;20515;-82
2023/12/24 07:43:51;;;;;;;2.30;1.38;;;;;;;9.40;98.11;100070.63;5030248;28;20052;-80
2023/12/24 07:46:16;;;;;;;2.78;1.45;;;;;;;9.78;98.21;100130.38;5032125;28;20429;-81
2023/12/24 07:48:42;;;;;;;3.10;1.92;;;;;;;9.71;98.12;100110.34;5031029;28;20026;-82
2023/12/24 07:51:07;;;;;;;3.10;2.28;;;;;;;9.83;98.23;100131.41;5032537;28;20025;-82
2023/12/24 07:53:33;;;;;;;2.40;1.60;;;;;;;9.84;98.19;100115.09;5032248;28;20026;-82
2023/12/24 07:55:59;;;;;;;3.65;1.67;;;;;;;9.81;98.64;100132.16;5032078;28;20021;-82
2023/12/24 07:58:25;;;;;;;4.13;2.13;;;;;;;9.81;98.89;100139.91;5031953;28;20071;-83
2023/12/24 08:00:50;;;;;;;1.27;0.95;;;;;;;9.87;97.62;100142.69;5031863;28;20053;-81
2023/12/24 08:03:16;;;;;;;2.88;1.80;;;;;;;9.81;98.50;100119.28;5032046;28;20018;-81
2023/12/24 08:05:42;;;;;;;2.85;1.45;;;;;;;9.81;98.29;100114.97;5032324;28;20404;-81
2023/12/24 08:08:08;;;;;;;3.00;1.38;;;;;;;9.87;98.58;100130.66;5031825;28;20021;-82
2023/12/24 08:10:33;;;;;;;2.35;1.52;;;;;;;9.84;99.01;100122.84;5031717;28;20050;-82
2023/12/24 08:12:59;;;;;;;2.00;1.30;;;;;;;9.55;98.26;100068.56;5030348;28;20026;-81
2023/12/24 08:15:24;;;;;;;5.10;2.28;;;;;;;10.02;98.16;100140.63;5030304;28;20030;-82
2023/12/24 08:17:50;;;;;;;2.30;1.88;;;;;;;10.14;97.50;100150.50;5031634;28;20021;-81
2023/12/24 08:20:15;;;;;;;3.20;1.65;;;;;;;9.76;97.42;100066.66;5030502;28;20029;-82
2023/12/24 08:22:41;;;;;;;2.63;1.40;;;;;;;10.31;97.07;100155.31;5031564;28;20064;-81
2023/12/24 08:25:08;;;;;;;2.25;1.38;;;;;;;10.26;97.14;100155.16;5031577;28;20025;-81
2023/12/24 08:27:35;;;;;;;3.28;1.70;;;;;;;10.41;96.85;100166.88;5031348;28;20070;-81
2023/12/24 08:30:00;;;;;;;2.15;1.02;;;;;;;10.49;96.35;100170.56;5029980;28;20083;-82
2023/12/24 08:32:26;;;;;;;3.08;1.60;;;;;;;10.29;97.00;100119.16;5031620;28;20030;-83
2023/12/24 08:34:51;;;;;;;1.67;1.38;;;;;;;10.63;95.10;100151.22;5031303;28;20057;-82
2023/12/24 08:37:17;;;;;;;1.35;0.90;;;;;;;10.79;92.64;100162.03;5031347;28;20700;-80
2023/12/24 08:39:42;;;;;;;4.05;1.00;;;;;;;10.93;92.74;100170.19;5031214;28;20060;-81
2023/12/24 08:42:08;;;;;;;2.33;1.20;;;;;;;10.86;92.14;100161.38;5013523;28;20064;-81
2023/12/24 08:44:35;;;;;;;2.50;1.08;;;;;;;10.95;92.33;100182.34;5030931;28;20061;-80
2023/12/24 08:47:01;;;;;;;4.85;1.60;;;;;;;10.96;92.44;100170.31;5031180;28;20128;-80
2023/12/24 08:49:26;;;;;;;2.65;1.58;;;;;;;10.92;92.99;100171.03;5031176;28;20097;-81
2023/12/24 08:51:53;;;;;;;1.83;1.10;;;;;;;11.05;92.28;100172.28;5030934;28;20025;-81
2023/12/24 08:54:19;;;;;;;3.70;1.38;;;;;;;11.01;92.09;100137.72;5029820;28;20046;-81
2023/12/24 08:56:44;;;;;;;3.10;1.20;;;;;;;11.43;91.12;100172.53;5030917;28;20527;-81
2023/12/24 08:59:10;;;;;;;2.58;1.05;;;;;;;11.63;89.02;100162.75;5030794;28;20471;-81
2023/12/24 09:01:40;;;;;;;2.38;1.48;;;;;;;11.85;89.46;100163.34;5031046;28;20034;-81
2023/12/24 09:04:06;;;;;;;3.17;1.70;;;;;;;12.01;88.59;100123.25;5029650;28;20033;-81
2023/12/24 09:06:31;;;;;;;2.08;1.35;;;;;;;12.19;87.33;100140.97;5030779;28;20083;-82
2023/12/24 09:08:57;;;;;;;2.15;1.58;;;;;;;12.35;85.49;100147.38;5030691;28;20029;-80
2023/12/24 09:11:22;;;;;;;2.42;1.23;;;;;;;12.37;86.36;100130.19;5030759;28;20025;-81
2023/12/24 09:13:48;;;;;;;4.97;1.25;;;;;;;12.43;84.32;100126.03;5030522;28;20029;-79
2023/12/24 09:16:13;;;;;;;3.95;1.30;;;;;;;12.57;84.22;100125.47;5029793;28;20017;-81
2023/12/24 09:18:40;;;;;;;2.08;1.40;;;;;;;12.58;84.69;100094.44;5030755;28;20025;-81
2023/12/24 09:21:06;;;;;;;1.77;1.20;;;;;;;12.89;84.78;100109.78;5030624;28;20036;-81
2023/12/24 09:23:31;;;;;;;2.17;1.10;;;;;;;12.90;82.46;100090.81;5030682;28;20037;-79
2023/12/24 09:25:57;;;;;;;2.38;1.40;;;;;;;12.90;82.45;100086.50;5029237;28;20022;-81
2023/12/24 09:28:22;;;;;;;1.70;1.10;;;;;;;12.76;82.50;100037.00;5030319;28;20025;-80
2023/12/24 09:30:48;;;;;;;1.98;1.42;;;;;;;12.97;82.76;100056.41;5030828;28;20100;-79
2023/12/24 09:33:14;;;;;;;3.78;1.17;;;;;;;13.15;82.33;100068.88;5030627;28;20029;-80
2023/12/24 09:35:42;;;;;;;2.00;1.00;;;;;;;12.55;80.25;99961.44;5030603;28;20079;-80
2023/12/24 09:38:08;;;;;;;2.63;1.02;;;;;;;13.16;81.22;100072.31;5030471;28;20100;-78
2023/12/24 09:40:34;;;;;;;1.48;0.90;;;;;;;12.89;80.42;100019.13;5030498;28;20057;-79
2023/12/24 09:43:00;;;;;;;1.08;0.70;;;;;;;13.15;80.08;100060.22;5028938;28;20057;-79
2023/12/24 09:45:28;;;;;;;0.85;0.85;;;;;;;13.13;78.58;100049.81;5029356;28;20541;-78
2023/12/24 09:47:53;;;;;;;3.13;0.85;;;;;;;12.87;78.26;99997.47;5030480;28;20033;-79
2023/12/24 09:50:19;;;;;;;1.83;0.80;;;;;;;12.99;78.39;100022.75;5028610;28;20034;-78
2023/12/24 09:52:45;;;;;;;4.65;1.95;;;;;;;13.51;77.73;100078.22;5030192;28;20026;-78
2023/12/24 09:55:11;;;;;;;0.80;0.80;;;;;;;13.54;77.43;100082.59;5030529;28;20048;-79
2023/12/24 09:57:38;;;;;;;1.20;0.80;;;;;;;13.68;77.17;100088.03;5030148;28;20417;-79
2023/12/24 10:00:08;;;;;;;1.60;1.17;;;;;;;13.52;77.83;100053.16;5030188;28;20480;-79
2023/12/24 10:02:33;;;;;;;;;;;;;;;13.63;77.00;100084.50;5029516;28;20491;-79
2023/12/24 10:05:00;;;;;;;1.25;1.00;;;;;;;13.66;78.16;100084.56;5030231;28;19963;-78
2023/12/24 10:07:37;;;;;;;5.88;1.02;;;;;;;13.71;77.12;100085.50;5031877;28;20057;-78
2023/12/24 10:10:04;;;;;;;4.00;1.20;;;;;;;13.62;78.35;100077.53;5033839;28;20041;-78
2023/12/24 10:12:30;;;;;;;2.20;0.98;;;;;;;13.67;77.67;100075.91;5034259;28;20029;-79
2023/12/24 10:14:57;;;;;;;1.90;1.00;;;;;;;13.78;76.38;100089.06;5034119;28;20030;-77
2023/12/24 10:17:34;;;;;;;0.95;0.70;;;;;;;13.86;75.56;100082.31;5033844;28;20026;-77
2023/12/24 10:20:03;;;;;;;1.55;1.00;;;;;;;13.79;76.71;100077.84;5031742;28;20037;-77
2023/12/24 10:22:28;;;;;;;2.10;1.20;;;;;;;13.49;77.37;100015.09;5031214;28;20108;-78
2023/12/24 10:25:06;;;;;;;2.22;1.00;;;;;;;14.02;77.62;100084.31;5014021;28;20113;-77
2023/12/24 10:27:32;;;;;;;0.80;0.80;;;;;;;13.98;77.38;100086.81;5014239;28;20069;-77
2023/12/24 10:30:16;;;;;;;1.90;1.02;;;;;;;14.15;78.18;100098.34;5013893;28;20113;-79
2023/12/24 10:32:42;;;;;;;1.40;1.10;;;;;;;14.06;76.41;100086.09;5013569;28;20437;-79
2023/12/24 10:35:08;;;;;;;1.15;0.70;;;;;;;13.93;75.49;100078.94;5013685;28;20042;-79
2023/12/24 10:37:34;;;;;;;3.28;0.82;;;;;;;14.01;76.11;100074.78;5013895;28;20030;-79
2023/12/24 10:40:10;;;;;;;1.75;0.73;;;;;;;14.09;74.74;100095.66;5013872;28;20050;-78
2023/12/24 10:42:40;;;;;;;1.00;0.85;;;;;;;14.06;75.25;100090.44;5013696;28;20061;-78
2023/12/24 10:45:11;;;;;;;0.80;0.50;;;;;;;14.11;73.81;100088.78;5013699;28;20477;-78
2023/12/24 10:47:38;;;;;;;1.00;1.00;;;;;;;14.31;75.16;100090.84;5013471;28;20026;-78
2023/12/24 10:50:04;;;;;;;1.45;1.10;;;;;;;14.18;74.27;100058.59;5013681;28;20473;-78
2023/12/24 10:52:33;;;;;;;1.23;0.90;;;;;;;14.40;72.36;100089.25;5013310;28;20476;-78
2023/12/24 10:55:00;;;;;;;2.72;1.80;;;;;;;14.08;72.25;100024.72;5012276;28;20030;-78
2023/12/24 10:58:02;;;;;;;7.95;5.75;;;;;;;14.48;72.45;100084.16;5013441;28;20076;-79
2023/12/24 11:00:29;;;;;;;7.07;4.20;;;;;;;14.14;71.22;100010.94;5013583;28;20045;-79
2023/12/24 11:02:55;;;;;;;12.32;7.25;;;;;;;14.59;70.77;100088.63;5013258;28;20487;-78
2023/12/24 11:05:43;;;;;;;8.55;4.05;;;;;;;14.67;70.00;100087.06;5011999;28;20041;-79
2023/12/24 11:08:24;;;;;;;6.95;2.83;;;;;;;14.76;69.12;100094.13;5011975;28;20392;-78
2023/12/24 11:10:54;;;;;;;3.67;1.80;;;;;;;14.69;69.57;100099.22;5013067;28;20484;-77
2023/12/24 11:13:32;;;;;;;1.75;1.10;;;;;;;14.47;70.54;100094.53;5013233;28;20022;-78
2023/12/24 11:16:02;;;;;;;1.20;0.90;;;;;;;14.58;70.33;100098.16;5013319;28;20065;-78
2023/12/24 11:18:47;;;;;;;2.22;1.45;;;;;;;14.74;70.54;100099.25;5012944;28;20479;-79
2023/12/24 11:21:15;;;;;;;3.03;1.20;;;;;;;14.60;68.26;100088.66;5011822;28;20032;-79
2023/12/24 11:23:42;;;;;;;3.45;1.88;;;;;;;14.76;67.48;100078.53;5013038;28;20057;-80
2023/12/24 11:26:30;;;;;;;3.45;1.90;;;;;;;14.77;66.66;100082.88;5012897;28;20538;-79